sensor_id;sensor_type;location;lat;lon;timestamp;temperature;humidity
9772;DHT22;4925;52.588;13.370;2023-04-03T00:00:49;2.80;99.90
9772;DHT22;4925;52.588;13.370;2023-04-03T00:03:16;2.90;99.90
9772;DHT22;4925;52.588;13.370;2023-04-03T00:05:42;2.70;99.90
9772;DHT22;4925;52.588;13.370;2023-04-03T00:08:08;2.70;99.90
9772;DHT22;4925;52.588;13.370;2023-04-03T00:10:35;2.80;99.90
9772;DHT22;4925;52.588;13.370;2023-04-03T00:13:02;2.70;99.90
9772;DHT22;4925;52.588;13.370;2023-04-03T00:15:27;2.70;99.90
9772;DHT22;4925;52.588;13.370;2023-04-03T00:17:53;2.70;99.90
9772;DHT22;4925;52.588;13.370;2023-04-03T00:20:19;2.70;99.90
9772;DHT22;4925;52.588;13.370;2023-04-03T00:22:44;2.70;99.90
9772;DHT22;4925;52.588;13.370;2023-04-03T00:25:11;2.70;99.90
9772;DHT22;4925;52.588;13.370;2023-04-03T00:27:38;2.70;99.90
9772;DHT22;4925;52.588;13.370;2023-04-03T00:30:05;2.70;99.90
9772;DHT22;4925;52.588;13.370;2023-04-03T00:32:32;2.60;99.90
9772;DHT22;4925;52.588;13.370;2023-04-03T00:34:57;2.60;99.90
9772;DHT22;4925;52.588;13.370;2023-04-03T00:37:23;2.60;99.90
9772;DHT22;4925;52.588;13.370;2023-04-03T00:39:49;2.60;99.90
9772;DHT22;4925;52.588;13.370;2023-04-03T00:42:15;2.70;99.90
9772;DHT22;4925;52.588;13.370;2023-04-03T00:47:11;2.70;99.90
9772;DHT22;4925;52.588;13.370;2023-04-03T00:49:38;2.70;99.90
9772;DHT22;4925;52.588;13.370;2023-04-03T00:52:05;2.60;99.90
9772;DHT22;4925;52.588;13.370;2023-04-03T00:54:35;2.50;99.90
9772;DHT22;4925;52.588;13.370;2023-04-03T00:57:01;2.60;99.90
9772;DHT22;4925;52.588;13.370;2023-04-03T00:59:31;2.60;99.90
9772;DHT22;4925;52.588;13.370;2023-04-03T01:01:58;2.60;99.90
9772;DHT22;4925;52.588;13.370;2023-04-03T01:04:31;2.60;99.90
9772;DHT22;4925;52.588;13.370;2023-04-03T01:07:02;2.50;99.90
9772;DHT22;4925;52.588;13.370;2023-04-03T01:09:29;2.50;99.90
9772;DHT22;4925;52.588;13.370;2023-04-03T01:14:45;2.60;99.90
9772;DHT22;4925;52.588;13.370;2023-04-03T01:18:05;2.50;99.90
9772;DHT22;4925;52.588;13.370;2023-04-03T01:25:52;2.50;99.90
9772;DHT22;4925;52.588;13.370;2023-04-03T01:28:24;2.50;99.90
9772;DHT22;4925;52.588;13.370;2023-04-03T01:33:19;2.60;99.90
9772;DHT22;4925;52.588;13.370;2023-04-03T01:35:45;2.60;99.90
9772;DHT22;4925;52.588;13.370;2023-04-03T01:38:11;2.60;99.90
9772;DHT22;4925;52.588;13.370;2023-04-03T01:40:37;2.60;99.90
9772;DHT22;4925;52.588;13.370;2023-04-03T01:43:02;2.60;99.90
9772;DHT22;4925;52.588;13.370;2023-04-03T01:45:28;2.60;99.90
9772;DHT22;4925;52.588;13.370;2023-04-03T01:47:54;2.60;99.90
9772;DHT22;4925;52.588;13.370;2023-04-03T01:50:20;2.60;99.90
9772;DHT22;4925;52.588;13.370;2023-04-03T01:52:45;2.60;99.90
9772;DHT22;4925;52.588;13.370;2023-04-03T01:55:11;2.70;99.90
9772;DHT22;4925;52.588;13.370;2023-04-03T01:57:37;2.60;99.90
9772;DHT22;4925;52.588;13.370;2023-04-03T02:00:03;2.60;99.90
9772;DHT22;4925;52.588;13.370;2023-04-03T02:02:29;2.60;99.90
9772;DHT22;4925;52.588;13.370;2023-04-03T02:04:55;2.60;99.90
9772;DHT22;4925;52.588;13.370;2023-04-03T02:07:20;2.60;99.90
9772;DHT22;4925;52.588;13.370;2023-04-03T02:09:46;2.70;99.90
9772;DHT22;4925;52.588;13.370;2023-04-03T02:12:12;2.70;99.90
9772;DHT22;4925;52.588;13.370;2023-04-03T02:14:38;2.60;99.90
9772;DHT22;4925;52.588;13.370;2023-04-03T02:17:03;2.70;99.90
9772;DHT22;4925;52.588;13.370;2023-04-03T02:19:36;2.60;99.90
9772;DHT22;4925;52.588;13.370;2023-04-03T02:22:03;2.60;99.90
9772;DHT22;4925;52.588;13.370;2023-04-03T02:24:29;2.70;99.90
9772;DHT22;4925;52.588;13.370;2023-04-03T02:26:55;2.70;99.90
9772;DHT22;4925;52.588;13.370;2023-04-03T02:29:21;2.70;99.90
9772;DHT22;4925;52.588;13.370;2023-04-03T02:31:46;2.60;99.90
9772;DHT22;4925;52.588;13.370;2023-04-03T02:34:12;2.60;99.90
9772;DHT22;4925;52.588;13.370;2023-04-03T02:36:38;2.60;99.90
9772;DHT22;4925;52.588;13.370;2023-04-03T02:39:04;2.50;99.90
9772;DHT22;4925;52.588;13.370;2023-04-03T02:41:29;2.50;99.90
9772;DHT22;4925;52.588;13.370;2023-04-03T02:44:01;2.40;99.90
9772;DHT22;4925;52.588;13.370;2023-04-03T02:46:27;2.40;99.90
9772;DHT22;4925;52.588;13.370;2023-04-03T02:48:52;2.30;99.90
9772;DHT22;4925;52.588;13.370;2023-04-03T02:51:18;2.30;99.90
9772;DHT22;4925;52.588;13.370;2023-04-03T02:53:44;2.20;99.90
9772;DHT22;4925;52.588;13.370;2023-04-03T02:56:09;2.20;99.90
9772;DHT22;4925;52.588;13.370;2023-04-03T02:58:35;2.20;99.90
9772;DHT22;4925;52.588;13.370;2023-04-03T03:01:01;2.20;99.90
9772;DHT22;4925;52.588;13.370;2023-04-03T03:03:27;2.10;99.90
9772;DHT22;4925;52.588;13.370;2023-04-03T03:06:10;2.10;99.90
9772;DHT22;4925;52.588;13.370;2023-04-03T03:08:36;2.00;99.90
9772;DHT22;4925;52.588;13.370;2023-04-03T03:11:02;2.00;99.90
9772;DHT22;4925;52.588;13.370;2023-04-03T03:13:28;2.00;99.90
9772;DHT22;4925;52.588;13.370;2023-04-03T03:15:54;2.00;99.90
9772;DHT22;4925;52.588;13.370;2023-04-03T03:18:19;1.90;99.90
9772;DHT22;4925;52.588;13.370;2023-04-03T03:20:45;2.00;99.90
9772;DHT22;4925;52.588;13.370;2023-04-03T03:23:11;2.00;99.90
9772;DHT22;4925;52.588;13.370;2023-04-03T03:25:40;2.00;99.90
9772;DHT22;4925;52.588;13.370;2023-04-03T03:28:07;2.00;99.90
9772;DHT22;4925;52.588;13.370;2023-04-03T03:30:33;2.10;99.90
9772;DHT22;4925;52.588;13.370;2023-04-03T03:32:59;2.10;99.90
9772;DHT22;4925;52.588;13.370;2023-04-03T03:35:25;2.00;99.90
9772;DHT22;4925;52.588;13.370;2023-04-03T03:37:50;2.00;99.90
9772;DHT22;4925;52.588;13.370;2023-04-03T03:40:16;2.00;99.90
9772;DHT22;4925;52.588;13.370;2023-04-03T03:42:42;2.00;99.90
9772;DHT22;4925;52.588;13.370;2023-04-03T03:45:08;1.90;99.90
9772;DHT22;4925;52.588;13.370;2023-04-03T03:47:34;1.90;99.90
9772;DHT22;4925;52.588;13.370;2023-04-03T03:50:00;1.90;99.90
9772;DHT22;4925;52.588;13.370;2023-04-03T03:52:26;1.90;99.90
9772;DHT22;4925;52.588;13.370;2023-04-03T03:54:52;1.90;99.90
9772;DHT22;4925;52.588;13.370;2023-04-03T03:57:17;1.90;99.90
9772;DHT22;4925;52.588;13.370;2023-04-03T03:59:43;1.90;99.90
9772;DHT22;4925;52.588;13.370;2023-04-03T04:02:10;1.90;99.90
9772;DHT22;4925;52.588;13.370;2023-04-03T04:04:36;1.90;99.90
9772;DHT22;4925;52.588;13.370;2023-04-03T04:07:03;1.90;99.90
9772;DHT22;4925;52.588;13.370;2023-04-03T04:09:28;1.90;99.90
9772;DHT22;4925;52.588;13.370;2023-04-03T04:11:54;1.90;99.90
9772;DHT22;4925;52.588;13.370;2023-04-03T04:14:20;1.90;99.90
9772;DHT22;4925;52.588;13.370;2023-04-03T04:16:47;1.90;99.90
9772;DHT22;4925;52.588;13.370;2023-04-03T04:19:13;1.90;99.90
9772;DHT22;4925;52.588;13.370;2023-04-03T04:21:39;1.90;99.90
9772;DHT22;4925;52.588;13.370;2023-04-03T04:24:07;1.80;99.90
9772;DHT22;4925;52.588;13.370;2023-04-03T04:26:33;1.80;99.90
9772;DHT22;4925;52.588;13.370;2023-04-03T04:28:58;1.80;99.90
9772;DHT22;4925;52.588;13.370;2023-04-03T04:31:24;1.70;99.90
9772;DHT22;4925;52.588;13.370;2023-04-03T04:33:50;1.80;99.90
9772;DHT22;4925;52.588;13.370;2023-04-03T04:36:16;1.80;99.90
9772;DHT22;4925;52.588;13.370;2023-04-03T04:38:42;1.90;99.90
9772;DHT22;4925;52.588;13.370;2023-04-03T04:41:07;1.90;99.90
9772;DHT22;4925;52.588;13.370;2023-04-03T04:43:33;1.80;99.90
9772;DHT22;4925;52.588;13.370;2023-04-03T04:46:04;1.80;99.90
9772;DHT22;4925;52.588;13.370;2023-04-03T04:48:30;1.90;99.90
9772;DHT22;4925;52.588;13.370;2023-04-03T04:50:56;1.90;99.90
9772;DHT22;4925;52.588;13.370;2023-04-03T04:53:22;1.90;99.90
9772;DHT22;4925;52.588;13.370;2023-04-03T04:55:47;2.00;99.90
9772;DHT22;4925;52.588;13.370;2023-04-03T04:58:13;2.00;99.90
9772;DHT22;4925;52.588;13.370;2023-04-03T05:00:39;2.00;99.90
9772;DHT22;4925;52.588;13.370;2023-04-03T05:03:05;2.00;99.90
9772;DHT22;4925;52.588;13.370;2023-04-03T05:05:31;2.00;99.90
9772;DHT22;4925;52.588;13.370;2023-04-03T05:07:57;2.10;99.90
9772;DHT22;4925;52.588;13.370;2023-04-03T05:10:22;2.10;99.90
9772;DHT22;4925;52.588;13.370;2023-04-03T05:12:48;2.10;99.90
9772;DHT22;4925;52.588;13.370;2023-04-03T05:15:14;2.20;99.90
9772;DHT22;4925;52.588;13.370;2023-04-03T05:17:40;2.20;99.90
9772;DHT22;4925;52.588;13.370;2023-04-03T05:20:07;2.30;99.90
9772;DHT22;4925;52.588;13.370;2023-04-03T05:22:33;2.30;99.90
9772;DHT22;4925;52.588;13.370;2023-04-03T05:24:58;2.30;99.90
9772;DHT22;4925;52.588;13.370;2023-04-03T05:27:24;2.20;99.90
9772;DHT22;4925;52.588;13.370;2023-04-03T05:29:52;2.20;99.90
9772;DHT22;4925;52.588;13.370;2023-04-03T05:32:18;2.20;99.90
9772;DHT22;4925;52.588;13.370;2023-04-03T05:34:43;2.20;99.90
9772;DHT22;4925;52.588;13.370;2023-04-03T05:37:10;2.20;99.90
9772;DHT22;4925;52.588;13.370;2023-04-03T05:39:36;2.30;99.90
9772;DHT22;4925;52.588;13.370;2023-04-03T05:42:04;2.40;99.90
9772;DHT22;4925;52.588;13.370;2023-04-03T05:44:29;2.40;99.90
9772;DHT22;4925;52.588;13.370;2023-04-03T05:46:55;2.40;99.90
9772;DHT22;4925;52.588;13.370;2023-04-03T05:49:21;2.50;99.90
9772;DHT22;4925;52.588;13.370;2023-04-03T05:51:47;2.60;99.90
9772;DHT22;4925;52.588;13.370;2023-04-03T05:54:17;2.70;99.90
9772;DHT22;4925;52.588;13.370;2023-04-03T05:56:44;2.80;99.90
9772;DHT22;4925;52.588;13.370;2023-04-03T05:59:10;2.80;99.90
9772;DHT22;4925;52.588;13.370;2023-04-03T06:01:36;2.90;99.90
9772;DHT22;4925;52.588;13.370;2023-04-03T06:04:02;2.90;99.90
9772;DHT22;4925;52.588;13.370;2023-04-03T06:06:49;3.00;99.90
9772;DHT22;4925;52.588;13.370;2023-04-03T06:09:17;3.10;99.90
9772;DHT22;4925;52.588;13.370;2023-04-03T06:11:44;3.20;99.90
9772;DHT22;4925;52.588;13.370;2023-04-03T06:14:10;3.20;99.90
9772;DHT22;4925;52.588;13.370;2023-04-03T06:16:37;3.30;99.90
9772;DHT22;4925;52.588;13.370;2023-04-03T06:19:03;3.30;99.90
9772;DHT22;4925;52.588;13.370;2023-04-03T06:21:29;3.40;99.90
9772;DHT22;4925;52.588;13.370;2023-04-03T06:23:55;3.40;99.90
9772;DHT22;4925;52.588;13.370;2023-04-03T06:26:21;3.50;99.90
9772;DHT22;4925;52.588;13.370;2023-04-03T06:28:47;3.50;99.90
9772;DHT22;4925;52.588;13.370;2023-04-03T06:31:13;3.60;99.90
9772;DHT22;4925;52.588;13.370;2023-04-03T06:33:39;3.60;99.90
9772;DHT22;4925;52.588;13.370;2023-04-03T06:36:05;3.60;99.90
9772;DHT22;4925;52.588;13.370;2023-04-03T06:38:32;3.60;99.90
9772;DHT22;4925;52.588;13.370;2023-04-03T06:40:58;3.60;99.90
9772;DHT22;4925;52.588;13.370;2023-04-03T06:43:24;3.60;99.90
9772;DHT22;4925;52.588;13.370;2023-04-03T06:45:50;3.60;99.90
9772;DHT22;4925;52.588;13.370;2023-04-03T06:48:16;3.70;99.90
9772;DHT22;4925;52.588;13.370;2023-04-03T06:50:41;3.80;99.90
9772;DHT22;4925;52.588;13.370;2023-04-03T06:53:07;3.80;99.90
9772;DHT22;4925;52.588;13.370;2023-04-03T06:55:33;3.80;99.90
9772;DHT22;4925;52.588;13.370;2023-04-03T06:57:59;3.80;99.90
9772;DHT22;4925;52.588;13.370;2023-04-03T07:00:26;3.70;99.90
9772;DHT22;4925;52.588;13.370;2023-04-03T07:02:51;3.70;99.90
9772;DHT22;4925;52.588;13.370;2023-04-03T07:05:18;3.80;99.90
9772;DHT22;4925;52.588;13.370;2023-04-03T07:07:43;3.90;99.90
9772;DHT22;4925;52.588;13.370;2023-04-03T07:10:09;4.00;99.90
9772;DHT22;4925;52.588;13.370;2023-04-03T07:12:36;3.90;99.90
9772;DHT22;4925;52.588;13.370;2023-04-03T07:15:04;4.00;99.90
9772;DHT22;4925;52.588;13.370;2023-04-03T07:17:29;4.10;99.90
9772;DHT22;4925;52.588;13.370;2023-04-03T07:19:55;4.20;99.90
9772;DHT22;4925;52.588;13.370;2023-04-03T07:22:21;4.30;99.90
9772;DHT22;4925;52.588;13.370;2023-04-03T07:24:46;4.20;99.90
9772;DHT22;4925;52.588;13.370;2023-04-03T07:27:12;4.20;99.90
9772;DHT22;4925;52.588;13.370;2023-04-03T07:29:38;4.30;99.90
9772;DHT22;4925;52.588;13.370;2023-04-03T07:32:04;4.30;99.90
9772;DHT22;4925;52.588;13.370;2023-04-03T07:34:31;4.40;99.90
9772;DHT22;4925;52.588;13.370;2023-04-03T07:36:58;4.60;99.90
9772;DHT22;4925;52.588;13.370;2023-04-03T07:39:24;4.60;99.90
9772;DHT22;4925;52.588;13.370;2023-04-03T07:41:51;4.80;99.90
9772;DHT22;4925;52.588;13.370;2023-04-03T07:44:17;4.90;99.90
9772;DHT22;4925;52.588;13.370;2023-04-03T07:46:43;5.10;98.40
9772;DHT22;4925;52.588;13.370;2023-04-03T07:49:09;5.10;97.70
9772;DHT22;4925;52.588;13.370;2023-04-03T07:51:35;5.10;97.20
9772;DHT22;4925;52.588;13.370;2023-04-03T07:54:00;5.30;97.10
9772;DHT22;4925;52.588;13.370;2023-04-03T07:56:26;5.20;96.30
9772;DHT22;4925;52.588;13.370;2023-04-03T07:58:53;5.20;95.70
9772;DHT22;4925;52.588;13.370;2023-04-03T08:01:19;5.30;96.20
9772;DHT22;4925;52.588;13.370;2023-04-03T08:03:44;5.40;96.40
9772;DHT22;4925;52.588;13.370;2023-04-03T08:06:10;5.60;95.90
9772;DHT22;4925;52.588;13.370;2023-04-03T08:08:36;5.70;97.30
9772;DHT22;4925;52.588;13.370;2023-04-03T08:11:02;5.80;94.70
9772;DHT22;4925;52.588;13.370;2023-04-03T08:13:30;5.90;93.60
9772;DHT22;4925;52.588;13.370;2023-04-03T08:15:56;5.90;92.10
9772;DHT22;4925;52.588;13.370;2023-04-03T08:18:23;5.80;91.30
9772;DHT22;4925;52.588;13.370;2023-04-03T08:20:50;5.70;91.20
9772;DHT22;4925;52.588;13.370;2023-04-03T08:23:17;5.70;90.30
9772;DHT22;4925;52.588;13.370;2023-04-03T08:25:43;5.60;90.70
9772;DHT22;4925;52.588;13.370;2023-04-03T08:28:11;5.50;90.20
9772;DHT22;4925;52.588;13.370;2023-04-03T08:30:40;5.60;90.60
9772;DHT22;4925;52.588;13.370;2023-04-03T08:33:06;5.60;90.40
9772;DHT22;4925;52.588;13.370;2023-04-03T08:35:32;5.60;91.30
9772;DHT22;4925;52.588;13.370;2023-04-03T08:37:58;5.60;91.40
9772;DHT22;4925;52.588;13.370;2023-04-03T08:40:24;5.50;91.80
9772;DHT22;4925;52.588;13.370;2023-04-03T08:45:47;5.50;91.90
9772;DHT22;4925;52.588;13.370;2023-04-03T08:48:19;5.50;91.90
9772;DHT22;4925;52.588;13.370;2023-04-03T08:50:53;5.40;92.00
9772;DHT22;4925;52.588;13.370;2023-04-03T08:53:32;5.50;92.30
9772;DHT22;4925;52.588;13.370;2023-04-03T08:56:02;5.50;91.20
9772;DHT22;4925;52.588;13.370;2023-04-03T08:58:52;5.60;90.60
9772;DHT22;4925;52.588;13.370;2023-04-03T09:01:38;5.70;90.80
9772;DHT22;4925;52.588;13.370;2023-04-03T09:04:14;5.70;90.70
9772;DHT22;4925;52.588;13.370;2023-04-03T09:06:43;5.80;90.00
9772;DHT22;4925;52.588;13.370;2023-04-03T09:09:15;5.80;90.20
9772;DHT22;4925;52.588;13.370;2023-04-03T09:12:13;5.90;90.50
9772;DHT22;4925;52.588;13.370;2023-04-03T09:15:27;6.00;90.60
9772;DHT22;4925;52.588;13.370;2023-04-03T09:23:39;6.20;88.10
9772;DHT22;4925;52.588;13.370;2023-04-03T09:26:16;6.30;88.80
9772;DHT22;4925;52.588;13.370;2023-04-03T09:28:43;6.40;88.80
9772;DHT22;4925;52.588;13.370;2023-04-03T09:31:37;6.70;86.80
9772;DHT22;4925;52.588;13.370;2023-04-03T09:34:39;6.90;84.00
9772;DHT22;4925;52.588;13.370;2023-04-03T09:37:03;7.00;82.20
9772;DHT22;4925;52.588;13.370;2023-04-03T09:39:33;7.10;82.10
9772;DHT22;4925;52.588;13.370;2023-04-03T09:42:24;7.20;80.60
9772;DHT22;4925;52.588;13.370;2023-04-03T09:44:56;7.30;79.30
9772;DHT22;4925;52.588;13.370;2023-04-03T09:47:33;7.40;75.40
9772;DHT22;4925;52.588;13.370;2023-04-03T09:52:41;7.30;76.90
9772;DHT22;4925;52.588;13.370;2023-04-03T09:55:23;7.20;75.90
9772;DHT22;4925;52.588;13.370;2023-04-03T09:58:03;7.20;76.10
9772;DHT22;4925;52.588;13.370;2023-04-03T10:00:40;7.10;75.70
9772;DHT22;4925;52.588;13.370;2023-04-03T10:03:21;7.00;74.20
9772;DHT22;4925;52.588;13.370;2023-04-03T10:05:48;7.10;75.00
9772;DHT22;4925;52.588;13.370;2023-04-03T10:10:44;7.10;75.00
9772;DHT22;4925;52.588;13.370;2023-04-03T10:13:13;7.10;75.50
9772;DHT22;4925;52.588;13.370;2023-04-03T10:16:15;7.00;72.10
9772;DHT22;4925;52.588;13.370;2023-04-03T10:21:31;7.20;73.80
9772;DHT22;4925;52.588;13.370;2023-04-03T10:27:13;7.50;73.00
9772;DHT22;4925;52.588;13.370;2023-04-03T10:38:01;8.10;65.00
9772;DHT22;4925;52.588;13.370;2023-04-03T10:40:45;8.10;64.30
9772;DHT22;4925;52.588;13.370;2023-04-03T10:43:32;8.20;64.80
9772;DHT22;4925;52.588;13.370;2023-04-03T10:48:40;8.20;64.30
9772;DHT22;4925;52.588;13.370;2023-04-03T10:53:56;8.20;64.50
9772;DHT22;4925;52.588;13.370;2023-04-03T10:58:56;8.30;65.50
9772;DHT22;4925;52.588;13.370;2023-04-03T11:01:32;8.50;63.00
9772;DHT22;4925;52.588;13.370;2023-04-03T11:04:00;8.30;64.70
9772;DHT22;4925;52.588;13.370;2023-04-03T11:06:38;8.20;65.30
9772;DHT22;4925;52.588;13.370;2023-04-03T11:09:22;8.30;66.20
9772;DHT22;4925;52.588;13.370;2023-04-03T11:11:51;8.50;66.40
9772;DHT22;4925;52.588;13.370;2023-04-03T11:14:27;8.70;66.50
9772;DHT22;4925;52.588;13.370;2023-04-03T11:17:05;8.80;65.30
9772;DHT22;4925;52.588;13.370;2023-04-03T11:22:42;8.60;65.40
9772;DHT22;4925;52.588;13.370;2023-04-03T11:28:00;8.70;63.90
9772;DHT22;4925;52.588;13.370;2023-04-03T11:30:43;8.80;65.00
9772;DHT22;4925;52.588;13.370;2023-04-03T11:33:35;8.80;65.90
9772;DHT22;4925;52.588;13.370;2023-04-03T11:36:41;8.60;66.40
9772;DHT22;4925;52.588;13.370;2023-04-03T11:39:07;8.40;66.20
9772;DHT22;4925;52.588;13.370;2023-04-03T11:41:35;8.30;67.40
9772;DHT22;4925;52.588;13.370;2023-04-03T11:44:25;8.10;68.60
9772;DHT22;4925;52.588;13.370;2023-04-03T11:46:57;8.00;70.30
9772;DHT22;4925;52.588;13.370;2023-04-03T11:49:52;8.00;71.30
9772;DHT22;4925;52.588;13.370;2023-04-03T12:16:29;7.90;72.60
9772;DHT22;4925;52.588;13.370;2023-04-03T12:19:13;7.80;73.50
9772;DHT22;4925;52.588;13.370;2023-04-03T12:27:17;7.60;74.90
9772;DHT22;4925;52.588;13.370;2023-04-03T12:35:19;7.70;74.30
9772;DHT22;4925;52.588;13.370;2023-04-03T12:46:45;8.80;63.70
9772;DHT22;4925;52.588;13.370;2023-04-03T12:49:41;8.90;64.80
9772;DHT22;4925;52.588;13.370;2023-04-03T12:52:29;8.90;67.10
9772;DHT22;4925;52.588;13.370;2023-04-03T12:54:56;8.80;65.60
9772;DHT22;4925;52.588;13.370;2023-04-03T12:57:26;8.90;65.90
9772;DHT22;4925;52.588;13.370;2023-04-03T12:59:53;8.80;67.90
9772;DHT22;4925;52.588;13.370;2023-04-03T13:02:30;8.80;66.20
9772;DHT22;4925;52.588;13.370;2023-04-03T13:04:59;8.70;66.50
9772;DHT22;4925;52.588;13.370;2023-04-03T13:07:33;8.60;67.90
9772;DHT22;4925;52.588;13.370;2023-04-03T13:12:56;8.20;69.90
9772;DHT22;4925;52.588;13.370;2023-04-03T13:15:30;8.30;70.20
9772;DHT22;4925;52.588;13.370;2023-04-03T13:18:20;8.30;71.10
9772;DHT22;4925;52.588;13.370;2023-04-03T13:20:47;8.30;70.60
9772;DHT22;4925;52.588;13.370;2023-04-03T13:23:17;8.20;70.30
9772;DHT22;4925;52.588;13.370;2023-04-03T13:25:46;8.30;70.20
9772;DHT22;4925;52.588;13.370;2023-04-03T13:28:16;8.20;70.30
9772;DHT22;4925;52.588;13.370;2023-04-03T13:30:57;8.20;70.30
9772;DHT22;4925;52.588;13.370;2023-04-03T13:33:26;8.20;70.50
9772;DHT22;4925;52.588;13.370;2023-04-03T13:36:08;8.20;70.30
9772;DHT22;4925;52.588;13.370;2023-04-03T13:38:35;8.20;71.30
9772;DHT22;4925;52.588;13.370;2023-04-03T13:41:20;8.20;71.20
9772;DHT22;4925;52.588;13.370;2023-04-03T13:43:47;8.20;72.80
9772;DHT22;4925;52.588;13.370;2023-04-03T13:49:00;8.10;72.50
9772;DHT22;4925;52.588;13.370;2023-04-03T13:51:45;8.10;73.30
9772;DHT22;4925;52.588;13.370;2023-04-03T13:54:24;8.00;73.60
9772;DHT22;4925;52.588;13.370;2023-04-03T13:56:56;7.90;73.50
9772;DHT22;4925;52.588;13.370;2023-04-03T13:59:35;7.90;74.60
9772;DHT22;4925;52.588;13.370;2023-04-03T14:04:45;7.90;76.00
9772;DHT22;4925;52.588;13.370;2023-04-03T14:07:15;7.80;76.10
9772;DHT22;4925;52.588;13.370;2023-04-03T14:09:41;7.90;76.20
9772;DHT22;4925;52.588;13.370;2023-04-03T14:12:31;7.80;77.10
9772;DHT22;4925;52.588;13.370;2023-04-03T14:15:02;7.90;76.80
9772;DHT22;4925;52.588;13.370;2023-04-03T14:17:28;7.90;76.70
9772;DHT22;4925;52.588;13.370;2023-04-03T14:19:57;8.00;77.80
9772;DHT22;4925;52.588;13.370;2023-04-03T14:22:26;8.10;76.30
9772;DHT22;4925;52.588;13.370;2023-04-03T14:24:53;8.10;76.00
9772;DHT22;4925;52.588;13.370;2023-04-03T14:27:28;8.20;75.60
9772;DHT22;4925;52.588;13.370;2023-04-03T14:29:55;8.20;76.10
9772;DHT22;4925;52.588;13.370;2023-04-03T14:32:23;8.40;77.20
9772;DHT22;4925;52.588;13.370;2023-04-03T14:34:50;8.80;76.50
9772;DHT22;4925;52.588;13.370;2023-04-03T14:37:20;9.10;75.40
9772;DHT22;4925;52.588;13.370;2023-04-03T14:39:47;9.30;74.20
9772;DHT22;4925;52.588;13.370;2023-04-03T14:42:17;9.40;73.80
9772;DHT22;4925;52.588;13.370;2023-04-03T14:44:43;9.50;72.90
9772;DHT22;4925;52.588;13.370;2023-04-03T14:47:14;9.40;72.00
9772;DHT22;4925;52.588;13.370;2023-04-03T14:49:41;9.40;72.70
9772;DHT22;4925;52.588;13.370;2023-04-03T14:52:29;9.30;72.90
9772;DHT22;4925;52.588;13.370;2023-04-03T14:54:56;9.20;73.80
9772;DHT22;4925;52.588;13.370;2023-04-03T14:57:24;8.80;74.30
9772;DHT22;4925;52.588;13.370;2023-04-03T14:59:51;8.60;75.50
9772;DHT22;4925;52.588;13.370;2023-04-03T15:02:30;8.60;76.70
9772;DHT22;4925;52.588;13.370;2023-04-03T15:04:57;8.60;76.70
9772;DHT22;4925;52.588;13.370;2023-04-03T15:07:24;8.40;90.40
9772;DHT22;4925;52.588;13.370;2023-04-03T15:09:51;8.30;99.50
9772;DHT22;4925;52.588;13.370;2023-04-03T15:12:17;8.40;94.50
9772;DHT22;4925;52.588;13.370;2023-04-03T15:14:42;8.30;88.40
9772;DHT22;4925;52.588;13.370;2023-04-03T15:17:17;8.20;87.70
9772;DHT22;4925;52.588;13.370;2023-04-03T15:19:45;8.00;88.50
9772;DHT22;4925;52.588;13.370;2023-04-03T15:22:18;7.90;89.50
9772;DHT22;4925;52.588;13.370;2023-04-03T15:24:44;7.80;90.00
9772;DHT22;4925;52.588;13.370;2023-04-03T15:27:11;7.70;90.20
9772;DHT22;4925;52.588;13.370;2023-04-03T15:29:38;7.50;90.80
9772;DHT22;4925;52.588;13.370;2023-04-03T15:32:05;7.50;90.90
9772;DHT22;4925;52.588;13.370;2023-04-03T15:34:30;7.40;91.10
9772;DHT22;4925;52.588;13.370;2023-04-03T15:36:56;7.40;90.20
9772;DHT22;4925;52.588;13.370;2023-04-03T15:39:22;7.40;90.40
9772;DHT22;4925;52.588;13.370;2023-04-03T15:41:49;7.40;89.80
9772;DHT22;4925;52.588;13.370;2023-04-03T15:44:17;7.40;90.20
9772;DHT22;4925;52.588;13.370;2023-04-03T15:46:44;7.30;90.10
9772;DHT22;4925;52.588;13.370;2023-04-03T15:49:11;7.30;90.50
9772;DHT22;4925;52.588;13.370;2023-04-03T15:51:37;7.30;90.60
9772;DHT22;4925;52.588;13.370;2023-04-03T15:54:02;7.30;90.80
9772;DHT22;4925;52.588;13.370;2023-04-03T15:56:28;7.30;90.90
9772;DHT22;4925;52.588;13.370;2023-04-03T15:58:54;7.30;91.30
9772;DHT22;4925;52.588;13.370;2023-04-03T16:01:19;7.30;91.40
9772;DHT22;4925;52.588;13.370;2023-04-03T16:03:46;7.30;91.20
9772;DHT22;4925;52.588;13.370;2023-04-03T16:06:15;7.20;91.00
9772;DHT22;4925;52.588;13.370;2023-04-03T16:08:42;7.30;91.10
9772;DHT22;4925;52.588;13.370;2023-04-03T16:11:08;7.30;91.20
9772;DHT22;4925;52.588;13.370;2023-04-03T16:13:34;7.60;91.40
9772;DHT22;4925;52.588;13.370;2023-04-03T16:16:00;7.80;90.70
9772;DHT22;4925;52.588;13.370;2023-04-03T16:18:28;8.10;90.70
9772;DHT22;4925;52.588;13.370;2023-04-03T16:20:54;8.40;90.00
9772;DHT22;4925;52.588;13.370;2023-04-03T16:23:20;8.70;89.10
9772;DHT22;4925;52.588;13.370;2023-04-03T16:25:46;8.90;86.70
9772;DHT22;4925;52.588;13.370;2023-04-03T16:28:17;9.00;85.00
9772;DHT22;4925;52.588;13.370;2023-04-03T16:30:45;9.20;85.50
9772;DHT22;4925;52.588;13.370;2023-04-03T16:33:12;9.10;84.60
9772;DHT22;4925;52.588;13.370;2023-04-03T16:35:38;9.00;85.10
9772;DHT22;4925;52.588;13.370;2023-04-03T16:38:04;8.90;86.70
9772;DHT22;4925;52.588;13.370;2023-04-03T16:40:29;8.80;88.20
9772;DHT22;4925;52.588;13.370;2023-04-03T16:42:55;8.50;88.90
9772;DHT22;4925;52.588;13.370;2023-04-03T16:45:21;8.20;90.40
9772;DHT22;4925;52.588;13.370;2023-04-03T16:47:47;7.90;91.10
9772;DHT22;4925;52.588;13.370;2023-04-03T16:50:13;7.70;91.90
9772;DHT22;4925;52.588;13.370;2023-04-03T16:52:39;7.50;92.80
9772;DHT22;4925;52.588;13.370;2023-04-03T16:55:06;7.30;93.10
9772;DHT22;4925;52.588;13.370;2023-04-03T16:57:32;7.30;93.90
9772;DHT22;4925;52.588;13.370;2023-04-03T16:59:58;7.20;93.90
9772;DHT22;4925;52.588;13.370;2023-04-03T17:02:24;7.00;94.90
9772;DHT22;4925;52.588;13.370;2023-04-03T17:04:51;6.90;94.70
9772;DHT22;4925;52.588;13.370;2023-04-03T17:07:19;6.90;94.80
9772;DHT22;4925;52.588;13.370;2023-04-03T17:09:45;6.90;94.90
9772;DHT22;4925;52.588;13.370;2023-04-03T17:12:11;6.80;95.30
9772;DHT22;4925;52.588;13.370;2023-04-03T17:14:36;6.70;95.60
9772;DHT22;4925;52.588;13.370;2023-04-03T17:17:03;6.70;95.90
9772;DHT22;4925;52.588;13.370;2023-04-03T17:19:29;6.70;96.30
9772;DHT22;4925;52.588;13.370;2023-04-03T17:21:56;6.60;96.90
9772;DHT22;4925;52.588;13.370;2023-04-03T17:24:21;6.50;97.00
9772;DHT22;4925;52.588;13.370;2023-04-03T17:26:47;6.40;97.80
9772;DHT22;4925;52.588;13.370;2023-04-03T17:29:13;6.40;97.70
9772;DHT22;4925;52.588;13.370;2023-04-03T17:31:39;6.40;98.00
9772;DHT22;4925;52.588;13.370;2023-04-03T17:34:04;6.30;98.40
9772;DHT22;4925;52.588;13.370;2023-04-03T17:36:32;6.30;98.50
9772;DHT22;4925;52.588;13.370;2023-04-03T17:38:58;6.20;98.80
9772;DHT22;4925;52.588;13.370;2023-04-03T17:41:24;6.20;99.50
9772;DHT22;4925;52.588;13.370;2023-04-03T17:43:51;6.30;99.90
9772;DHT22;4925;52.588;13.370;2023-04-03T17:46:17;6.20;99.90
9772;DHT22;4925;52.588;13.370;2023-04-03T17:48:43;6.10;99.90
9772;DHT22;4925;52.588;13.370;2023-04-03T17:51:11;6.10;99.90
9772;DHT22;4925;52.588;13.370;2023-04-03T17:53:38;6.10;99.90
9772;DHT22;4925;52.588;13.370;2023-04-03T17:56:12;6.00;99.90
9772;DHT22;4925;52.588;13.370;2023-04-03T17:58:38;6.00;99.90
9772;DHT22;4925;52.588;13.370;2023-04-03T18:01:16;6.00;99.90